sensor_id;sensor_type;location;lat;lon;timestamp;temperature;humidity
8633;DHT22;4354;49.832;10.746;2024-02-23T00:02:13;9.10;1.00
8633;DHT22;4354;49.832;10.746;2024-02-23T00:04:40;9.00;1.00
8633;DHT22;4354;49.832;10.746;2024-02-23T00:07:08;8.90;1.00
8633;DHT22;4354;49.832;10.746;2024-02-23T00:09:35;8.80;99.90
8633;DHT22;4354;49.832;10.746;2024-02-23T00:12:02;8.90;1.00
8633;DHT22;4354;49.832;10.746;2024-02-23T00:14:30;8.90;1.00
8633;DHT22;4354;49.832;10.746;2024-02-23T00:17:02;8.90;1.00
8633;DHT22;4354;49.832;10.746;2024-02-23T00:19:30;8.90;99.90
8633;DHT22;4354;49.832;10.746;2024-02-23T00:21:57;9.00;1.00
8633;DHT22;4354;49.832;10.746;2024-02-23T00:24:26;8.90;1.00
8633;DHT22;4354;49.832;10.746;2024-02-23T00:26:53;8.90;1.00
8633;DHT22;4354;49.832;10.746;2024-02-23T00:29:19;8.90;99.90
8633;DHT22;4354;49.832;10.746;2024-02-23T00:31:48;8.90;99.90
8633;DHT22;4354;49.832;10.746;2024-02-23T00:34:16;8.90;99.90
8633;DHT22;4354;49.832;10.746;2024-02-23T00:36:43;8.90;99.90
8633;DHT22;4354;49.832;10.746;2024-02-23T00:39:13;8.80;99.90
8633;DHT22;4354;49.832;10.746;2024-02-23T00:41:40;8.80;99.90
8633;DHT22;4354;49.832;10.746;2024-02-23T00:44:06;8.70;99.90
8633;DHT22;4354;49.832;10.746;2024-02-23T00:46:33;8.60;99.90
8633;DHT22;4354;49.832;10.746;2024-02-23T00:49:01;8.70;67.30
8633;DHT22;4354;49.832;10.746;2024-02-23T00:51:29;8.70;99.90
8633;DHT22;4354;49.832;10.746;2024-02-23T00:53:55;8.70;99.90
8633;DHT22;4354;49.832;10.746;2024-02-23T00:56:22;8.60;99.90
8633;DHT22;4354;49.832;10.746;2024-02-23T00:58:58;8.60;97.10
8633;DHT22;4354;49.832;10.746;2024-02-23T01:01:25;8.70;3.80
8633;DHT22;4354;49.832;10.746;2024-02-23T01:03:53;8.60;16.60
8633;DHT22;4354;49.832;10.746;2024-02-23T01:06:20;8.50;17.30
8633;DHT22;4354;49.832;10.746;2024-02-23T01:08:47;8.40;7.40
8633;DHT22;4354;49.832;10.746;2024-02-23T01:11:14;8.40;1.00
8633;DHT22;4354;49.832;10.746;2024-02-23T01:13:41;8.40;1.00
8633;DHT22;4354;49.832;10.746;2024-02-23T01:16:08;8.30;1.00
8633;DHT22;4354;49.832;10.746;2024-02-23T01:18:35;8.20;1.00
8633;DHT22;4354;49.832;10.746;2024-02-23T01:21:02;8.00;1.00
8633;DHT22;4354;49.832;10.746;2024-02-23T01:23:28;8.00;1.00
8633;DHT22;4354;49.832;10.746;2024-02-23T01:25:55;7.90;1.00
8633;DHT22;4354;49.832;10.746;2024-02-23T01:28:22;7.80;1.00
8633;DHT22;4354;49.832;10.746;2024-02-23T01:30:49;7.80;1.00
8633;DHT22;4354;49.832;10.746;2024-02-23T01:33:15;7.70;66.70
8633;DHT22;4354;49.832;10.746;2024-02-23T01:35:43;7.60;97.40
8633;DHT22;4354;49.832;10.746;2024-02-23T01:38:09;7.50;74.70
8633;DHT22;4354;49.832;10.746;2024-02-23T01:40:36;7.50;83.40
8633;DHT22;4354;49.832;10.746;2024-02-23T01:43:06;7.50;1.00
8633;DHT22;4354;49.832;10.746;2024-02-23T01:45:33;7.50;1.00
8633;DHT22;4354;49.832;10.746;2024-02-23T01:48:00;7.50;1.00
8633;DHT22;4354;49.832;10.746;2024-02-23T01:50:28;7.50;1.00
8633;DHT22;4354;49.832;10.746;2024-02-23T01:53:00;7.40;1.00
8633;DHT22;4354;49.832;10.746;2024-02-23T01:55:27;7.40;1.00
8633;DHT22;4354;49.832;10.746;2024-02-23T01:57:58;7.40;1.00
8633;DHT22;4354;49.832;10.746;2024-02-23T02:00:26;7.30;1.00
8633;DHT22;4354;49.832;10.746;2024-02-23T02:02:53;7.20;1.00
8633;DHT22;4354;49.832;10.746;2024-02-23T02:05:20;7.10;1.00
8633;DHT22;4354;49.832;10.746;2024-02-23T02:07:47;7.10;1.00
8633;DHT22;4354;49.832;10.746;2024-02-23T02:10:17;7.00;99.90
8633;DHT22;4354;49.832;10.746;2024-02-23T02:12:44;6.90;99.90
8633;DHT22;4354;49.832;10.746;2024-02-23T02:15:11;6.90;99.90
8633;DHT22;4354;49.832;10.746;2024-02-23T02:17:37;6.90;52.10
8633;DHT22;4354;49.832;10.746;2024-02-23T02:20:05;6.90;30.90
8633;DHT22;4354;49.832;10.746;2024-02-23T02:22:34;7.00;17.70
8633;DHT22;4354;49.832;10.746;2024-02-23T02:25:01;7.00;98.00
8633;DHT22;4354;49.832;10.746;2024-02-23T02:27:28;7.00;63.70
8633;DHT22;4354;49.832;10.746;2024-02-23T02:29:55;7.00;58.00
8633;DHT22;4354;49.832;10.746;2024-02-23T02:32:22;7.00;65.50
8633;DHT22;4354;49.832;10.746;2024-02-23T02:34:49;6.90;99.90
8633;DHT22;4354;49.832;10.746;2024-02-23T02:37:16;6.90;99.90
8633;DHT22;4354;49.832;10.746;2024-02-23T02:39:43;7.10;99.90
8633;DHT22;4354;49.832;10.746;2024-02-23T02:42:10;7.20;99.90
8633;DHT22;4354;49.832;10.746;2024-02-23T02:44:37;7.20;99.90
8633;DHT22;4354;49.832;10.746;2024-02-23T02:47:03;7.10;1.00
8633;DHT22;4354;49.832;10.746;2024-02-23T02:49:30;7.10;1.00
8633;DHT22;4354;49.832;10.746;2024-02-23T02:52:01;7.10;1.00
8633;DHT22;4354;49.832;10.746;2024-02-23T02:54:28;7.10;99.90
8633;DHT22;4354;49.832;10.746;2024-02-23T02:56:55;7.00;1.00
8633;DHT22;4354;49.832;10.746;2024-02-23T02:59:23;7.00;99.90
8633;DHT22;4354;49.832;10.746;2024-02-23T03:01:53;6.90;99.90
8633;DHT22;4354;49.832;10.746;2024-02-23T03:04:20;6.80;99.90
8633;DHT22;4354;49.832;10.746;2024-02-23T03:06:47;6.80;1.00
8633;DHT22;4354;49.832;10.746;2024-02-23T03:09:14;6.70;99.90
8633;DHT22;4354;49.832;10.746;2024-02-23T03:11:41;6.70;1.00
8633;DHT22;4354;49.832;10.746;2024-02-23T03:14:08;6.60;1.00
8633;DHT22;4354;49.832;10.746;2024-02-23T03:16:36;6.50;1.00
8633;DHT22;4354;49.832;10.746;2024-02-23T03:19:04;6.40;99.90
8633;DHT22;4354;49.832;10.746;2024-02-23T03:21:31;6.40;99.90
8633;DHT22;4354;49.832;10.746;2024-02-23T03:23:58;6.40;21.70
8633;DHT22;4354;49.832;10.746;2024-02-23T03:26:24;6.30;99.90
8633;DHT22;4354;49.832;10.746;2024-02-23T03:28:51;6.30;99.90
8633;DHT22;4354;49.832;10.746;2024-02-23T03:31:18;6.30;1.00
8633;DHT22;4354;49.832;10.746;2024-02-23T03:33:45;6.30;1.00
8633;DHT22;4354;49.832;10.746;2024-02-23T03:36:11;6.20;1.00
8633;DHT22;4354;49.832;10.746;2024-02-23T03:38:38;6.30;1.00
8633;DHT22;4354;49.832;10.746;2024-02-23T03:41:05;6.30;1.00
8633;DHT22;4354;49.832;10.746;2024-02-23T03:43:33;6.30;1.00
8633;DHT22;4354;49.832;10.746;2024-02-23T03:46:00;6.40;1.00
8633;DHT22;4354;49.832;10.746;2024-02-23T03:48:27;6.40;99.90
8633;DHT22;4354;49.832;10.746;2024-02-23T03:50:54;6.50;93.10
8633;DHT22;4354;49.832;10.746;2024-02-23T03:53:21;6.50;1.00
8633;DHT22;4354;49.832;10.746;2024-02-23T03:55:49;6.50;53.90
8633;DHT22;4354;49.832;10.746;2024-02-23T03:58:16;6.50;99.90
8633;DHT22;4354;49.832;10.746;2024-02-23T04:00:43;6.60;1.00
8633;DHT22;4354;49.832;10.746;2024-02-23T04:03:10;6.60;1.00
8633;DHT22;4354;49.832;10.746;2024-02-23T04:05:37;6.60;1.00
8633;DHT22;4354;49.832;10.746;2024-02-23T04:08:04;6.50;1.00
8633;DHT22;4354;49.832;10.746;2024-02-23T04:10:32;6.50;1.00
8633;DHT22;4354;49.832;10.746;2024-02-23T04:12:59;6.50;99.90
8633;DHT22;4354;49.832;10.746;2024-02-23T04:15:26;6.40;1.00
8633;DHT22;4354;49.832;10.746;2024-02-23T04:17:53;6.20;1.00
8633;DHT22;4354;49.832;10.746;2024-02-23T04:20:20;6.00;99.90
8633;DHT22;4354;49.832;10.746;2024-02-23T04:22:47;5.70;1.00
8633;DHT22;4354;49.832;10.746;2024-02-23T04:25:14;5.50;1.00
8633;DHT22;4354;49.832;10.746;2024-02-23T04:27:40;5.30;1.00
8633;DHT22;4354;49.832;10.746;2024-02-23T04:30:08;5.20;42.30
8633;DHT22;4354;49.832;10.746;2024-02-23T04:32:34;5.10;99.90
8633;DHT22;4354;49.832;10.746;2024-02-23T04:35:02;5.00;1.00
8633;DHT22;4354;49.832;10.746;2024-02-23T04:37:29;5.00;99.90
8633;DHT22;4354;49.832;10.746;2024-02-23T04:39:58;4.90;99.90
8633;DHT22;4354;49.832;10.746;2024-02-23T04:42:25;4.90;99.90
8633;DHT22;4354;49.832;10.746;2024-02-23T04:44:52;4.90;99.90
8633;DHT22;4354;49.832;10.746;2024-02-23T04:47:21;4.90;99.90
8633;DHT22;4354;49.832;10.746;2024-02-23T04:49:49;4.80;1.00
8633;DHT22;4354;49.832;10.746;2024-02-23T04:52:16;4.80;1.00
8633;DHT22;4354;49.832;10.746;2024-02-23T04:54:43;4.70;99.90
8633;DHT22;4354;49.832;10.746;2024-02-23T04:57:10;4.70;1.00
8633;DHT22;4354;49.832;10.746;2024-02-23T04:59:36;4.80;1.00
8633;DHT22;4354;49.832;10.746;2024-02-23T05:02:03;4.80;1.00
8633;DHT22;4354;49.832;10.746;2024-02-23T05:04:31;4.80;1.00
8633;DHT22;4354;49.832;10.746;2024-02-23T05:06:57;4.70;1.00
8633;DHT22;4354;49.832;10.746;2024-02-23T05:09:24;4.80;99.90
8633;DHT22;4354;49.832;10.746;2024-02-23T05:11:51;4.80;1.00
8633;DHT22;4354;49.832;10.746;2024-02-23T05:14:18;4.70;99.90
8633;DHT22;4354;49.832;10.746;2024-02-23T05:16:45;4.70;99.90
8633;DHT22;4354;49.832;10.746;2024-02-23T05:19:12;4.70;1.00
8633;DHT22;4354;49.832;10.746;2024-02-23T05:21:39;4.60;1.00
8633;DHT22;4354;49.832;10.746;2024-02-23T05:24:05;4.50;1.00
8633;DHT22;4354;49.832;10.746;2024-02-23T05:26:33;4.50;1.00
8633;DHT22;4354;49.832;10.746;2024-02-23T05:28:59;4.50;1.00
8633;DHT22;4354;49.832;10.746;2024-02-23T05:31:44;4.50;1.00
8633;DHT22;4354;49.832;10.746;2024-02-23T05:34:12;4.40;1.00
8633;DHT22;4354;49.832;10.746;2024-02-23T05:36:40;4.40;1.00
8633;DHT22;4354;49.832;10.746;2024-02-23T05:39:06;4.40;1.00
8633;DHT22;4354;49.832;10.746;2024-02-23T05:41:34;4.40;1.00
8633;DHT22;4354;49.832;10.746;2024-02-23T05:44:01;4.40;1.00
8633;DHT22;4354;49.832;10.746;2024-02-23T05:46:31;4.50;1.00
8633;DHT22;4354;49.832;10.746;2024-02-23T05:48:58;4.40;1.00
8633;DHT22;4354;49.832;10.746;2024-02-23T05:51:25;4.50;1.00
8633;DHT22;4354;49.832;10.746;2024-02-23T05:53:52;4.60;1.00
8633;DHT22;4354;49.832;10.746;2024-02-23T05:56:19;4.60;1.00
8633;DHT22;4354;49.832;10.746;2024-02-23T05:58:46;4.60;1.00
8633;DHT22;4354;49.832;10.746;2024-02-23T06:01:13;4.70;1.00
8633;DHT22;4354;49.832;10.746;2024-02-23T06:03:39;4.60;1.00
8633;DHT22;4354;49.832;10.746;2024-02-23T06:06:09;4.60;1.00
8633;DHT22;4354;49.832;10.746;2024-02-23T06:08:36;4.60;1.00
8633;DHT22;4354;49.832;10.746;2024-02-23T06:11:04;4.60;1.00
8633;DHT22;4354;49.832;10.746;2024-02-23T06:13:31;4.60;1.00
8633;DHT22;4354;49.832;10.746;2024-02-23T06:15:57;4.60;1.00
8633;DHT22;4354;49.832;10.746;2024-02-23T06:18:24;4.60;1.00
8633;DHT22;4354;49.832;10.746;2024-02-23T06:20:51;4.60;1.00
8633;DHT22;4354;49.832;10.746;2024-02-23T06:23:18;4.50;1.00
8633;DHT22;4354;49.832;10.746;2024-02-23T06:25:45;4.60;1.00
8633;DHT22;4354;49.832;10.746;2024-02-23T06:28:13;4.50;1.00
8633;DHT22;4354;49.832;10.746;2024-02-23T06:30:39;4.50;1.00
8633;DHT22;4354;49.832;10.746;2024-02-23T06:33:06;4.50;1.00
8633;DHT22;4354;49.832;10.746;2024-02-23T06:35:33;4.50;1.00
8633;DHT22;4354;49.832;10.746;2024-02-23T06:38:00;4.40;1.00
8633;DHT22;4354;49.832;10.746;2024-02-23T06:40:27;4.40;1.00
8633;DHT22;4354;49.832;10.746;2024-02-23T06:43:07;4.40;1.00
8633;DHT22;4354;49.832;10.746;2024-02-23T06:45:33;4.40;1.00
8633;DHT22;4354;49.832;10.746;2024-02-23T06:48:00;4.40;1.00
8633;DHT22;4354;49.832;10.746;2024-02-23T06:50:27;4.40;1.00
8633;DHT22;4354;49.832;10.746;2024-02-23T06:52:54;4.40;1.00
8633;DHT22;4354;49.832;10.746;2024-02-23T06:55:21;4.50;1.00
8633;DHT22;4354;49.832;10.746;2024-02-23T06:57:48;4.50;1.00
8633;DHT22;4354;49.832;10.746;2024-02-23T07:00:15;4.50;1.00
8633;DHT22;4354;49.832;10.746;2024-02-23T07:02:42;4.60;1.00
8633;DHT22;4354;49.832;10.746;2024-02-23T07:05:09;4.60;1.00
8633;DHT22;4354;49.832;10.746;2024-02-23T07:07:36;4.70;1.00
8633;DHT22;4354;49.832;10.746;2024-02-23T07:10:03;4.70;1.00
8633;DHT22;4354;49.832;10.746;2024-02-23T07:12:29;4.70;1.00
8633;DHT22;4354;49.832;10.746;2024-02-23T07:14:56;4.80;1.00
8633;DHT22;4354;49.832;10.746;2024-02-23T07:17:23;4.80;1.00
8633;DHT22;4354;49.832;10.746;2024-02-23T07:19:51;4.90;1.00
8633;DHT22;4354;49.832;10.746;2024-02-23T07:22:19;4.90;1.00
8633;DHT22;4354;49.832;10.746;2024-02-23T07:24:47;4.90;1.00
8633;DHT22;4354;49.832;10.746;2024-02-23T07:27:13;4.90;1.00
8633;DHT22;4354;49.832;10.746;2024-02-23T07:29:40;4.90;1.00
8633;DHT22;4354;49.832;10.746;2024-02-23T07:32:07;5.00;1.00
8633;DHT22;4354;49.832;10.746;2024-02-23T07:34:35;5.00;99.90
8633;DHT22;4354;49.832;10.746;2024-02-23T07:37:01;5.00;1.00
8633;DHT22;4354;49.832;10.746;2024-02-23T07:39:29;5.00;1.00
8633;DHT22;4354;49.832;10.746;2024-02-23T07:41:56;5.00;99.90
8633;DHT22;4354;49.832;10.746;2024-02-23T07:44:22;5.10;99.90
8633;DHT22;4354;49.832;10.746;2024-02-23T07:46:51;5.10;99.90
8633;DHT22;4354;49.832;10.746;2024-02-23T07:49:21;5.10;99.90
8633;DHT22;4354;49.832;10.746;2024-02-23T07:51:48;5.10;99.90
8633;DHT22;4354;49.832;10.746;2024-02-23T07:54:15;5.20;1.00
8633;DHT22;4354;49.832;10.746;2024-02-23T07:56:42;5.20;99.90
8633;DHT22;4354;49.832;10.746;2024-02-23T07:59:10;5.30;1.00
8633;DHT22;4354;49.832;10.746;2024-02-23T08:01:36;5.40;1.00
8633;DHT22;4354;49.832;10.746;2024-02-23T08:04:03;5.40;1.00
8633;DHT22;4354;49.832;10.746;2024-02-23T08:06:30;5.50;99.90
8633;DHT22;4354;49.832;10.746;2024-02-23T08:08:57;5.50;1.00
8633;DHT22;4354;49.832;10.746;2024-02-23T08:11:24;5.50;1.00
8633;DHT22;4354;49.832;10.746;2024-02-23T08:13:50;5.60;1.00
8633;DHT22;4354;49.832;10.746;2024-02-23T08:16:17;5.70;99.90
8633;DHT22;4354;49.832;10.746;2024-02-23T08:18:44;5.70;99.90
8633;DHT22;4354;49.832;10.746;2024-02-23T08:21:11;5.70;99.90
8633;DHT22;4354;49.832;10.746;2024-02-23T08:23:38;5.80;1.00
8633;DHT22;4354;49.832;10.746;2024-02-23T08:26:06;5.80;1.00
8633;DHT22;4354;49.832;10.746;2024-02-23T08:28:33;5.90;1.00
8633;DHT22;4354;49.832;10.746;2024-02-23T08:30:59;5.90;1.00
8633;DHT22;4354;49.832;10.746;2024-02-23T08:33:26;6.00;99.90
8633;DHT22;4354;49.832;10.746;2024-02-23T08:35:54;6.00;99.90
8633;DHT22;4354;49.832;10.746;2024-02-23T08:38:21;6.00;99.90
8633;DHT22;4354;49.832;10.746;2024-02-23T08:40:47;6.00;99.90
8633;DHT22;4354;49.832;10.746;2024-02-23T08:43:14;6.10;1.00
8633;DHT22;4354;49.832;10.746;2024-02-23T08:45:41;6.10;99.90
8633;DHT22;4354;49.832;10.746;2024-02-23T08:48:08;6.20;1.00
8633;DHT22;4354;49.832;10.746;2024-02-23T08:50:35;6.20;99.90
8633;DHT22;4354;49.832;10.746;2024-02-23T08:53:02;6.30;1.00
8633;DHT22;4354;49.832;10.746;2024-02-23T08:55:29;6.30;1.00
8633;DHT22;4354;49.832;10.746;2024-02-23T08:57:57;6.40;99.90
8633;DHT22;4354;49.832;10.746;2024-02-23T09:00:23;6.50;1.00
8633;DHT22;4354;49.832;10.746;2024-02-23T09:02:50;6.40;1.00
8633;DHT22;4354;49.832;10.746;2024-02-23T09:05:17;6.40;1.00
8633;DHT22;4354;49.832;10.746;2024-02-23T09:07:44;6.50;1.00
8633;DHT22;4354;49.832;10.746;2024-02-23T09:10:12;6.50;99.90
8633;DHT22;4354;49.832;10.746;2024-02-23T09:12:39;6.50;99.90
8633;DHT22;4354;49.832;10.746;2024-02-23T09:15:06;6.50;99.90
8633;DHT22;4354;49.832;10.746;2024-02-23T09:17:32;6.50;99.90
8633;DHT22;4354;49.832;10.746;2024-02-23T09:19:59;6.50;38.10
8633;DHT22;4354;49.832;10.746;2024-02-23T09:22:26;6.50;16.10
8633;DHT22;4354;49.832;10.746;2024-02-23T09:24:54;6.60;1.00
8633;DHT22;4354;49.832;10.746;2024-02-23T09:27:23;6.70;1.00
8633;DHT22;4354;49.832;10.746;2024-02-23T09:29:49;6.80;1.00
8633;DHT22;4354;49.832;10.746;2024-02-23T09:32:17;6.90;1.00
8633;DHT22;4354;49.832;10.746;2024-02-23T09:34:44;6.90;1.00
8633;DHT22;4354;49.832;10.746;2024-02-23T09:37:11;7.00;1.00
8633;DHT22;4354;49.832;10.746;2024-02-23T09:39:38;7.10;1.00
8633;DHT22;4354;49.832;10.746;2024-02-23T09:42:09;7.10;1.00
8633;DHT22;4354;49.832;10.746;2024-02-23T09:44:37;7.20;1.00
8633;DHT22;4354;49.832;10.746;2024-02-23T09:47:05;7.20;1.00
8633;DHT22;4354;49.832;10.746;2024-02-23T09:49:38;7.30;1.00
8633;DHT22;4354;49.832;10.746;2024-02-23T09:52:09;7.30;1.00
8633;DHT22;4354;49.832;10.746;2024-02-23T09:54:39;7.30;1.00
8633;DHT22;4354;49.832;10.746;2024-02-23T09:57:08;7.40;1.00
8633;DHT22;4354;49.832;10.746;2024-02-23T09:59:36;7.50;1.00
8633;DHT22;4354;49.832;10.746;2024-02-23T10:02:08;7.40;1.00
8633;DHT22;4354;49.832;10.746;2024-02-23T10:04:39;7.40;1.00
8633;DHT22;4354;49.832;10.746;2024-02-23T10:07:08;7.40;1.00
8633;DHT22;4354;49.832;10.746;2024-02-23T10:09:36;7.50;1.00
8633;DHT22;4354;49.832;10.746;2024-02-23T10:12:03;7.40;1.00
8633;DHT22;4354;49.832;10.746;2024-02-23T10:14:30;7.30;1.00
8633;DHT22;4354;49.832;10.746;2024-02-23T10:16:57;7.40;1.00
8633;DHT22;4354;49.832;10.746;2024-02-23T10:19:24;7.40;1.00
8633;DHT22;4354;49.832;10.746;2024-02-23T10:21:56;7.50;1.00
8633;DHT22;4354;49.832;10.746;2024-02-23T10:24:23;7.50;1.00
8633;DHT22;4354;49.832;10.746;2024-02-23T10:26:52;7.60;1.00
8633;DHT22;4354;49.832;10.746;2024-02-23T10:29:19;7.70;1.00
8633;DHT22;4354;49.832;10.746;2024-02-23T10:31:48;7.70;1.00
8633;DHT22;4354;49.832;10.746;2024-02-23T10:34:19;7.60;1.00
8633;DHT22;4354;49.832;10.746;2024-02-23T10:36:47;7.70;1.00
8633;DHT22;4354;49.832;10.746;2024-02-23T10:39:18;7.70;1.00
8633;DHT22;4354;49.832;10.746;2024-02-23T10:42:00;7.70;1.00
8633;DHT22;4354;49.832;10.746;2024-02-23T10:44:29;7.70;1.00
8633;DHT22;4354;49.832;10.746;2024-02-23T10:46:58;7.80;1.00
8633;DHT22;4354;49.832;10.746;2024-02-23T10:49:28;7.70;1.00
8633;DHT22;4354;49.832;10.746;2024-02-23T10:51:56;7.80;1.00
8633;DHT22;4354;49.832;10.746;2024-02-23T10:54:23;7.70;1.00
8633;DHT22;4354;49.832;10.746;2024-02-23T10:56:50;7.70;1.00
8633;DHT22;4354;49.832;10.746;2024-02-23T10:59:18;7.90;1.00
8633;DHT22;4354;49.832;10.746;2024-02-23T11:01:50;8.00;1.00
8633;DHT22;4354;49.832;10.746;2024-02-23T11:04:20;8.10;1.00
8633;DHT22;4354;49.832;10.746;2024-02-23T11:06:55;8.10;1.00
8633;DHT22;4354;49.832;10.746;2024-02-23T11:09:25;8.20;1.00
8633;DHT22;4354;49.832;10.746;2024-02-23T11:11:53;8.10;1.00
8633;DHT22;4354;49.832;10.746;2024-02-23T11:14:34;8.20;1.00
8633;DHT22;4354;49.832;10.746;2024-02-23T11:17:03;8.20;1.00
8633;DHT22;4354;49.832;10.746;2024-02-23T11:19:38;8.20;1.00
8633;DHT22;4354;49.832;10.746;2024-02-23T11:22:10;8.20;1.00
8633;DHT22;4354;49.832;10.746;2024-02-23T11:24:49;8.20;1.00
8633;DHT22;4354;49.832;10.746;2024-02-23T11:27:20;8.00;99.90
8633;DHT22;4354;49.832;10.746;2024-02-23T11:29:48;7.90;1.00
8633;DHT22;4354;49.832;10.746;2024-02-23T11:32:38;7.90;99.90
8633;DHT22;4354;49.832;10.746;2024-02-23T11:35:08;7.80;99.90
8633;DHT22;4354;49.832;10.746;2024-02-23T11:37:49;7.80;99.90
8633;DHT22;4354;49.832;10.746;2024-02-23T11:40:23;7.90;99.90
8633;DHT22;4354;49.832;10.746;2024-02-23T11:42:51;7.80;99.90
8633;DHT22;4354;49.832;10.746;2024-02-23T11:45:18;8.00;99.90
8633;DHT22;4354;49.832;10.746;2024-02-23T11:47:45;7.90;99.90
8633;DHT22;4354;49.832;10.746;2024-02-23T11:50:13;7.80;99.90
8633;DHT22;4354;49.832;10.746;2024-02-23T11:52:41;7.80;99.90
8633;DHT22;4354;49.832;10.746;2024-02-23T11:55:08;8.00;1.00
8633;DHT22;4354;49.832;10.746;2024-02-23T11:57:35;8.00;99.90
8633;DHT22;4354;49.832;10.746;2024-02-23T12:00:13;7.90;99.90
8633;DHT22;4354;49.832;10.746;2024-02-23T12:02:40;7.90;99.90
8633;DHT22;4354;49.832;10.746;2024-02-23T12:05:08;7.70;99.90
8633;DHT22;4354;49.832;10.746;2024-02-23T12:07:35;7.70;99.90
8633;DHT22;4354;49.832;10.746;2024-02-23T12:10:03;7.80;99.90
8633;DHT22;4354;49.832;10.746;2024-02-23T12:12:30;7.90;99.90
8633;DHT22;4354;49.832;10.746;2024-02-23T12:14:57;8.00;99.90
8633;DHT22;4354;49.832;10.746;2024-02-23T12:17:25;8.20;99.90
8633;DHT22;4354;49.832;10.746;2024-02-23T12:20:02;8.20;99.90
8633;DHT22;4354;49.832;10.746;2024-02-23T12:22:30;8.20;99.90
8633;DHT22;4354;49.832;10.746;2024-02-23T12:24:59;8.10;99.90
8633;DHT22;4354;49.832;10.746;2024-02-23T12:27:26;8.10;99.90
8633;DHT22;4354;49.832;10.746;2024-02-23T12:29:54;8.30;99.90
8633;DHT22;4354;49.832;10.746;2024-02-23T12:32:21;8.40;99.90
8633;DHT22;4354;49.832;10.746;2024-02-23T12:34:49;8.40;99.90
8633;DHT22;4354;49.832;10.746;2024-02-23T12:37:16;8.10;99.90
8633;DHT22;4354;49.832;10.746;2024-02-23T12:39:46;8.10;99.90
8633;DHT22;4354;49.832;10.746;2024-02-23T12:42:13;8.00;99.90
8633;DHT22;4354;49.832;10.746;2024-02-23T12:44:40;8.20;99.90
8633;DHT22;4354;49.832;10.746;2024-02-23T12:47:07;8.20;99.90
8633;DHT22;4354;49.832;10.746;2024-02-23T12:49:34;8.30;99.90
8633;DHT22;4354;49.832;10.746;2024-02-23T12:52:01;8.30;99.90
8633;DHT22;4354;49.832;10.746;2024-02-23T12:54:28;8.40;99.90
8633;DHT22;4354;49.832;10.746;2024-02-23T12:56:55;8.50;99.90
8633;DHT22;4354;49.832;10.746;2024-02-23T12:59:23;8.50;99.90
8633;DHT22;4354;49.832;10.746;2024-02-23T13:01:50;8.50;99.90
8633;DHT22;4354;49.832;10.746;2024-02-23T13:04:19;8.50;99.90
8633;DHT22;4354;49.832;10.746;2024-02-23T13:06:45;8.40;99.90
8633;DHT22;4354;49.832;10.746;2024-02-23T13:09:14;8.40;99.90
8633;DHT22;4354;49.832;10.746;2024-02-23T13:11:41;8.40;99.90
8633;DHT22;4354;49.832;10.746;2024-02-23T13:14:08;8.20;99.90
8633;DHT22;4354;49.832;10.746;2024-02-23T13:16:36;8.10;99.90
8633;DHT22;4354;49.832;10.746;2024-02-23T13:19:03;8.00;99.90
8633;DHT22;4354;49.832;10.746;2024-02-23T13:21:30;8.10;99.90
8633;DHT22;4354;49.832;10.746;2024-02-23T13:23:58;7.90;99.90
8633;DHT22;4354;49.832;10.746;2024-02-23T13:26:25;8.00;99.90
8633;DHT22;4354;49.832;10.746;2024-02-23T13:28:52;7.90;99.90
8633;DHT22;4354;49.832;10.746;2024-02-23T13:31:20;8.10;99.90
8633;DHT22;4354;49.832;10.746;2024-02-23T13:33:46;8.20;99.90
8633;DHT22;4354;49.832;10.746;2024-02-23T13:36:14;8.20;99.90
8633;DHT22;4354;49.832;10.746;2024-02-23T13:38:40;8.20;99.90
8633;DHT22;4354;49.832;10.746;2024-02-23T13:41:08;8.20;99.90
8633;DHT22;4354;49.832;10.746;2024-02-23T13:43:35;8.30;99.90
8633;DHT22;4354;49.832;10.746;2024-02-23T13:46:02;8.30;99.90
8633;DHT22;4354;49.832;10.746;2024-02-23T13:48:30;8.40;99.90
8633;DHT22;4354;49.832;10.746;2024-02-23T13:50:57;8.40;99.90
8633;DHT22;4354;49.832;10.746;2024-02-23T13:53:30;8.40;99.90
8633;DHT22;4354;49.832;10.746;2024-02-23T13:55:57;8.30;99.90
8633;DHT22;4354;49.832;10.746;2024-02-23T13:58:24;8.10;99.90
8633;DHT22;4354;49.832;10.746;2024-02-23T14:00:51;8.10;99.90
8633;DHT22;4354;49.832;10.746;2024-02-23T14:03:18;8.10;99.90
8633;DHT22;4354;49.832;10.746;2024-02-23T14:05:45;8.20;99.90
8633;DHT22;4354;49.832;10.746;2024-02-23T14:08:14;8.10;99.90
8633;DHT22;4354;49.832;10.746;2024-02-23T14:10:40;8.10;99.90
8633;DHT22;4354;49.832;10.746;2024-02-23T14:13:09;8.10;99.90
8633;DHT22;4354;49.832;10.746;2024-02-23T14:15:37;8.00;99.90
8633;DHT22;4354;49.832;10.746;2024-02-23T14:18:04;8.20;99.90
8633;DHT22;4354;49.832;10.746;2024-02-23T14:20:31;8.20;99.90
8633;DHT22;4354;49.832;10.746;2024-02-23T14:22:58;8.10;99.90
8633;DHT22;4354;49.832;10.746;2024-02-23T14:25:25;8.10;99.90
8633;DHT22;4354;49.832;10.746;2024-02-23T14:27:51;8.20;99.90
8633;DHT22;4354;49.832;10.746;2024-02-23T14:30:18;8.00;99.90
8633;DHT22;4354;49.832;10.746;2024-02-23T14:32:45;8.00;99.90
8633;DHT22;4354;49.832;10.746;2024-02-23T14:35:14;8.00;99.90
8633;DHT22;4354;49.832;10.746;2024-02-23T14:37:40;8.00;99.90
8633;DHT22;4354;49.832;10.746;2024-02-23T14:40:08;8.00;99.90
8633;DHT22;4354;49.832;10.746;2024-02-23T14:42:35;7.90;99.90
8633;DHT22;4354;49.832;10.746;2024-02-23T14:45:03;7.90;99.90
8633;DHT22;4354;49.832;10.746;2024-02-23T14:47:30;8.00;99.90
8633;DHT22;4354;49.832;10.746;2024-02-23T14:50:07;7.90;99.90
8633;DHT22;4354;49.832;10.746;2024-02-23T14:52:35;8.00;99.90
8633;DHT22;4354;49.832;10.746;2024-02-23T14:55:02;8.00;99.90
8633;DHT22;4354;49.832;10.746;2024-02-23T14:57:30;8.00;99.90
8633;DHT22;4354;49.832;10.746;2024-02-23T14:59:57;8.00;99.90
8633;DHT22;4354;49.832;10.746;2024-02-23T15:02:24;7.90;99.90
8633;DHT22;4354;49.832;10.746;2024-02-23T15:04:50;7.90;99.90
8633;DHT22;4354;49.832;10.746;2024-02-23T15:07:17;7.90;99.90
8633;DHT22;4354;49.832;10.746;2024-02-23T15:09:44;7.90;99.90
8633;DHT22;4354;49.832;10.746;2024-02-23T15:12:11;7.70;99.90
8633;DHT22;4354;49.832;10.746;2024-02-23T15:14:39;7.80;99.90
8633;DHT22;4354;49.832;10.746;2024-02-23T15:17:06;7.70;99.90
8633;DHT22;4354;49.832;10.746;2024-02-23T15:19:32;7.60;99.90
8633;DHT22;4354;49.832;10.746;2024-02-23T15:21:59;7.60;99.90
8633;DHT22;4354;49.832;10.746;2024-02-23T15:24:26;7.50;99.90
8633;DHT22;4354;49.832;10.746;2024-02-23T15:26:54;7.50;99.90
8633;DHT22;4354;49.832;10.746;2024-02-23T15:29:21;7.50;99.90
8633;DHT22;4354;49.832;10.746;2024-02-23T15:31:48;7.40;99.90
8633;DHT22;4354;49.832;10.746;2024-02-23T15:34:14;7.40;99.90
8633;DHT22;4354;49.832;10.746;2024-02-23T15:36:41;7.40;99.90
8633;DHT22;4354;49.832;10.746;2024-02-23T15:39:08;7.30;99.90
8633;DHT22;4354;49.832;10.746;2024-02-23T15:41:35;7.40;99.90
8633;DHT22;4354;49.832;10.746;2024-02-23T15:44:03;7.30;99.90
8633;DHT22;4354;49.832;10.746;2024-02-23T15:46:30;7.30;99.90
8633;DHT22;4354;49.832;10.746;2024-02-23T15:48:58;7.30;99.90
8633;DHT22;4354;49.832;10.746;2024-02-23T15:51:25;7.20;99.90
8633;DHT22;4354;49.832;10.746;2024-02-23T15:54:12;7.20;99.90
8633;DHT22;4354;49.832;10.746;2024-02-23T15:56:39;7.20;99.90
8633;DHT22;4354;49.832;10.746;2024-02-23T15:59:06;7.00;99.90
8633;DHT22;4354;49.832;10.746;2024-02-23T16:01:35;7.00;99.90
8633;DHT22;4354;49.832;10.746;2024-02-23T16:04:05;7.00;99.90
8633;DHT22;4354;49.832;10.746;2024-02-23T16:06:33;7.00;99.90
8633;DHT22;4354;49.832;10.746;2024-02-23T16:09:02;6.90;99.90
8633;DHT22;4354;49.832;10.746;2024-02-23T16:11:29;6.80;99.90
8633;DHT22;4354;49.832;10.746;2024-02-23T16:13:58;6.80;99.90